createdAt,value
2023-12-29T00:00:44.398Z,9.80
2023-12-29T00:03:32.694Z,9.40
2023-12-29T00:06:03.916Z,8.20
2023-12-29T00:08:32.829Z,8.40
2023-12-29T00:11:00.922Z,11.80
2023-12-29T00:13:28.962Z,9.30
2023-12-29T00:15:57.184Z,10.60
2023-12-29T00:18:25.913Z,9.70
2023-12-29T00:21:06.090Z,8.60
2023-12-29T00:23:35.885Z,7.40
2023-12-29T00:26:04.105Z,8.00
2023-12-29T00:28:32.321Z,10.10
2023-12-29T00:31:02.639Z,10.20
2023-12-29T00:33:33.353Z,7.80
2023-12-29T00:38:30.502Z,9.70
2023-12-29T00:40:58.609Z,9.00
2023-12-29T00:43:26.739Z,8.20
2023-12-29T00:45:55.509Z,7.50
2023-12-29T00:48:23.739Z,9.20
2023-12-29T00:50:51.868Z,10.40
2023-12-29T00:53:19.985Z,9.00
2023-12-29T00:55:48.133Z,7.80
2023-12-29T00:58:16.387Z,8.30
2023-12-29T01:00:44.791Z,8.90
2023-12-29T01:03:13.021Z,9.20
2023-12-29T01:05:41.489Z,11.10
2023-12-29T01:08:09.712Z,8.60
2023-12-29T01:10:37.933Z,8.40
2023-12-29T01:13:06.058Z,7.00
2023-12-29T01:15:34.238Z,9.20
2023-12-29T01:18:02.571Z,9.40
2023-12-29T01:20:30.876Z,11.00
2023-12-29T01:22:58.960Z,9.10
2023-12-29T01:25:27.113Z,8.70
2023-12-29T01:27:56.547Z,9.50
2023-12-29T01:30:24.744Z,9.20
2023-12-29T01:32:52.959Z,8.90
2023-12-29T01:35:21.163Z,8.90
2023-12-29T01:37:49.304Z,7.50
2023-12-29T01:40:18.537Z,8.50
2023-12-29T01:45:23.324Z,8.80
2023-12-29T01:47:52.240Z,9.80
2023-12-29T01:52:11.519Z,9.90
2023-12-29T01:54:42.097Z,10.80
2023-12-29T01:57:10.231Z,9.60
2023-12-29T01:59:39.346Z,14.00
2023-12-29T02:02:08.025Z,8.70
2023-12-29T02:04:41.064Z,11.10
2023-12-29T02:07:09.285Z,11.50
2023-12-29T02:09:37.515Z,10.00
2023-12-29T02:12:06.492Z,10.00
2023-12-29T02:14:34.827Z,9.90
2023-12-29T02:17:18.755Z,9.60
2023-12-29T02:19:48.374Z,7.80
2023-12-29T02:22:16.917Z,8.70
2023-12-29T02:24:47.441Z,11.50
2023-12-29T02:27:34.733Z,11.20
2023-12-29T02:30:11.865Z,11.60
2023-12-29T02:32:43.349Z,12.70
2023-12-29T02:35:23.433Z,10.90
2023-12-29T02:37:51.530Z,10.10
2023-12-29T02:40:19.763Z,10.20
2023-12-29T02:42:51.008Z,13.30
2023-12-29T02:45:19.429Z,10.50
2023-12-29T02:47:47.720Z,11.10
2023-12-29T02:50:16.882Z,11.50
2023-12-29T02:52:45.028Z,10.00
2023-12-29T02:55:13.180Z,10.00
2023-12-29T02:57:41.421Z,10.60
2023-12-29T03:00:09.817Z,11.80
2023-12-29T03:02:38.006Z,9.10
2023-12-29T03:05:07.370Z,9.70
2023-12-29T03:07:36.328Z,9.70
2023-12-29T03:10:04.804Z,12.80
2023-12-29T03:12:32.956Z,8.30
2023-12-29T03:15:01.846Z,11.40
2023-12-29T03:17:29.965Z,12.00
2023-12-29T03:19:58.177Z,11.80
2023-12-29T03:22:26.314Z,11.50
2023-12-29T03:24:54.530Z,13.20
2023-12-29T03:27:22.717Z,12.30
2023-12-29T03:29:50.817Z,11.10
2023-12-29T03:32:19.250Z,10.70
2023-12-29T03:34:47.440Z,12.70
2023-12-29T03:37:15.677Z,14.10
2023-12-29T03:39:43.953Z,12.40
2023-12-29T03:44:41.089Z,13.70
2023-12-29T03:47:11.916Z,13.70
2023-12-29T03:49:40.095Z,13.80
2023-12-29T03:52:08.212Z,14.90
2023-12-29T03:54:36.816Z,14.70
2023-12-29T03:57:05.172Z,13.70
2023-12-29T03:59:33.258Z,11.00
2023-12-29T04:02:01.416Z,12.90
2023-12-29T04:04:29.551Z,12.20
2023-12-29T04:06:57.709Z,14.30
2023-12-29T04:09:25.760Z,13.60
2023-12-29T04:11:54.016Z,13.00
2023-12-29T04:14:22.083Z,13.40
2023-12-29T04:16:50.511Z,13.60
2023-12-29T04:19:18.710Z,13.40
2023-12-29T04:21:46.918Z,15.90
2023-12-29T04:24:15.361Z,12.40
2023-12-29T04:26:43.817Z,15.50
2023-12-29T04:29:14.016Z,11.90
2023-12-29T04:31:42.818Z,16.50
2023-12-29T04:34:10.943Z,13.50
2023-12-29T04:36:39.086Z,12.00
2023-12-29T04:39:10.148Z,14.70
2023-12-29T04:41:38.291Z,13.10
2023-12-29T04:44:06.413Z,12.00
2023-12-29T04:46:34.889Z,12.90
2023-12-29T04:49:03.781Z,11.70
2023-12-29T04:51:32.209Z,14.30
2023-12-29T04:54:00.324Z,15.40
2023-12-29T04:56:28.422Z,14.20
2023-12-29T04:58:57.856Z,13.60
2023-12-29T05:01:26.132Z,12.90
2023-12-29T05:03:54.335Z,12.00
2023-12-29T05:06:22.450Z,11.10
2023-12-29T05:08:50.517Z,11.30
2023-12-29T05:11:18.617Z,10.00
2023-12-29T05:13:46.900Z,10.50
2023-12-29T05:16:14.995Z,15.00
2023-12-29T05:18:45.459Z,9.30
2023-12-29T05:21:19.791Z,12.80
2023-12-29T05:23:49.022Z,10.50
2023-12-29T05:28:45.360Z,11.50
2023-12-29T05:31:13.905Z,9.00
2023-12-29T05:33:42.172Z,8.70
2023-12-29T05:36:11.210Z,10.20
2023-12-29T05:38:39.870Z,9.30
2023-12-29T05:41:08.224Z,11.40
2023-12-29T05:43:36.307Z,8.30
2023-12-29T05:46:04.893Z,11.10
2023-12-29T05:48:33.215Z,8.50
2023-12-29T05:51:10.493Z,8.80
2023-12-29T05:53:38.667Z,12.70
2023-12-29T05:56:06.876Z,10.30
2023-12-29T05:58:34.943Z,8.80
2023-12-29T06:01:03.328Z,8.20
2023-12-29T06:03:31.546Z,8.70
2023-12-29T06:05:59.655Z,8.60
2023-12-29T06:08:27.758Z,8.40
2023-12-29T06:10:55.834Z,7.20
2023-12-29T06:13:24.425Z,7.70
2023-12-29T06:15:52.626Z,7.40
2023-12-29T06:18:20.814Z,8.60
2023-12-29T06:20:49.110Z,7.20
2023-12-29T06:23:18.424Z,8.80
2023-12-29T06:28:14.589Z,6.60
2023-12-29T06:30:42.860Z,9.50
2023-12-29T06:33:11.791Z,7.90
2023-12-29T06:35:40.538Z,8.00
2023-12-29T06:38:08.796Z,7.90
2023-12-29T06:40:36.966Z,8.20
2023-12-29T06:43:05.436Z,7.30
2023-12-29T06:45:33.525Z,8.70
2023-12-29T06:48:01.967Z,6.20
2023-12-29T06:50:30.310Z,6.60
2023-12-29T06:52:58.375Z,6.90
2023-12-29T06:55:26.853Z,7.00
2023-12-29T06:57:55.006Z,9.10
2023-12-29T07:00:23.256Z,9.30
2023-12-29T07:02:51.494Z,7.70
2023-12-29T07:05:19.662Z,8.80
2023-12-29T07:07:48.013Z,8.60
2023-12-29T07:10:16.300Z,10.60
2023-12-29T07:12:44.662Z,8.60
2023-12-29T07:15:15.268Z,9.10
2023-12-29T07:17:43.421Z,8.70
2023-12-29T07:20:12.531Z,11.20
2023-12-29T07:22:40.565Z,10.80
2023-12-29T07:25:08.770Z,7.90
2023-12-29T07:27:37.115Z,9.20
2023-12-29T07:30:05.997Z,8.60
2023-12-29T07:32:34.177Z,8.40
2023-12-29T07:35:02.928Z,9.20
2023-12-29T07:37:31.077Z,8.90
2023-12-29T07:39:59.185Z,8.30
2023-12-29T07:42:27.394Z,6.00
2023-12-29T07:44:57.514Z,6.50
2023-12-29T07:47:25.603Z,7.50
2023-12-29T07:49:53.754Z,6.10
2023-12-29T07:52:21.889Z,7.10
2023-12-29T07:54:50.566Z,7.10
2023-12-29T07:57:18.651Z,4.40
2023-12-29T07:59:46.728Z,5.50
2023-12-29T08:02:14.809Z,5.40
2023-12-29T08:04:43.049Z,8.10
2023-12-29T08:07:12.071Z,4.80
2023-12-29T08:09:40.447Z,4.60
2023-12-29T08:12:08.585Z,6.20
2023-12-29T08:14:36.745Z,5.90
2023-12-29T08:17:04.809Z,6.40
2023-12-29T08:19:33.208Z,5.60
2023-12-29T08:22:01.542Z,6.20
2023-12-29T08:24:29.801Z,5.30
2023-12-29T08:26:57.964Z,5.00
2023-12-29T08:29:26.942Z,6.90
2023-12-29T08:31:55.029Z,5.60
2023-12-29T08:34:24.925Z,5.60
2023-12-29T08:36:53.219Z,4.70
2023-12-29T08:39:21.373Z,6.50
2023-12-29T08:41:50.822Z,6.30
2023-12-29T08:44:19.210Z,6.50
2023-12-29T08:46:47.276Z,8.70
2023-12-29T08:49:15.583Z,7.40
2023-12-29T08:51:43.737Z,9.30
2023-12-29T08:54:12.046Z,10.00
2023-12-29T08:56:40.174Z,8.00
2023-12-29T08:59:08.342Z,7.00
2023-12-29T09:01:36.495Z,7.50
2023-12-29T09:04:04.997Z,7.40
2023-12-29T09:06:33.295Z,7.80
2023-12-29T09:09:01.495Z,7.20
2023-12-29T09:11:29.893Z,7.70
2023-12-29T09:13:58.026Z,7.10
2023-12-29T09:16:26.138Z,7.50
2023-12-29T09:18:54.210Z,7.60
2023-12-29T09:21:22.402Z,7.20
2023-12-29T09:23:51.682Z,7.40
2023-12-29T09:26:19.871Z,5.50
2023-12-29T09:28:48.660Z,6.90
2023-12-29T09:31:16.974Z,6.50
2023-12-29T09:33:45.249Z,7.00
2023-12-29T09:36:13.367Z,6.90
2023-12-29T09:38:42.891Z,7.30
2023-12-29T09:41:12.839Z,6.00
2023-12-29T09:43:40.895Z,6.70
2023-12-29T09:46:09.746Z,7.80
2023-12-29T09:48:38.258Z,8.20
2023-12-29T09:51:06.520Z,9.20
2023-12-29T09:53:35.776Z,7.20
2023-12-29T09:58:32.749Z,6.20
2023-12-29T10:01:00.919Z,5.20
2023-12-29T10:03:29.026Z,6.40
2023-12-29T10:05:58.145Z,4.80
2023-12-29T10:08:27.123Z,5.90
2023-12-29T10:10:56.844Z,7.20
2023-12-29T10:13:25.096Z,4.80
2023-12-29T10:16:00.071Z,5.60
2023-12-29T10:18:32.195Z,6.80
2023-12-29T10:21:04.424Z,6.50
2023-12-29T10:23:45.227Z,5.00
2023-12-29T10:26:14.574Z,5.90
2023-12-29T10:28:42.602Z,6.20
2023-12-29T10:31:11.326Z,6.50
2023-12-29T10:33:39.847Z,5.10
2023-12-29T10:36:08.475Z,5.80
2023-12-29T10:38:41.080Z,4.90
2023-12-29T10:41:16.487Z,5.10
2023-12-29T10:43:45.911Z,5.60
2023-12-29T10:46:14.451Z,4.20
2023-12-29T10:48:42.661Z,5.60
2023-12-29T10:51:10.815Z,6.60
2023-12-29T10:53:41.556Z,7.40
2023-12-29T10:56:29.563Z,5.20
2023-12-29T10:59:04.879Z,6.20
2023-12-29T11:01:36.968Z,6.10
2023-12-29T11:04:06.686Z,5.30
2023-12-29T11:06:42.557Z,5.60
2023-12-29T11:09:11.898Z,6.80
2023-12-29T11:11:40.236Z,6.20
2023-12-29T11:14:10.096Z,8.90
2023-12-29T11:16:38.632Z,6.00
2023-12-29T11:19:07.568Z,6.90
2023-12-29T11:24:04.053Z,5.50
2023-12-29T11:26:32.156Z,6.70
2023-12-29T11:29:00.338Z,5.70
2023-12-29T11:31:28.482Z,5.10
2023-12-29T11:34:04.365Z,4.70
2023-12-29T11:36:34.695Z,4.90
2023-12-29T11:39:08.066Z,5.20
2023-12-29T11:41:43.668Z,5.20
2023-12-29T11:44:12.483Z,5.80
2023-12-29T11:46:44.431Z,7.60
2023-12-29T11:49:12.895Z,5.50
2023-12-29T11:51:41.650Z,3.80
2023-12-29T11:56:41.709Z,5.40
2023-12-29T11:59:13.954Z,5.70
2023-12-29T12:01:42.280Z,6.00
2023-12-29T12:04:46.923Z,7.60
2023-12-29T12:07:18.854Z,5.70
2023-12-29T12:09:50.603Z,5.20
2023-12-29T12:12:44.298Z,4.50
2023-12-29T12:15:32.600Z,5.30
2023-12-29T12:18:01.443Z,5.60
2023-12-29T12:20:29.863Z,5.60
2023-12-29T12:23:02.213Z,5.70
2023-12-29T12:25:31.829Z,5.30
2023-12-29T12:28:00.079Z,6.20
2023-12-29T12:30:28.418Z,6.00
2023-12-29T12:33:00.498Z,7.00
2023-12-29T12:35:29.059Z,8.80
2023-12-29T12:38:13.186Z,6.50
2023-12-29T12:40:41.516Z,4.40
2023-12-29T12:43:09.969Z,5.90
2023-12-29T12:46:05.601Z,9.60
2023-12-29T12:48:47.214Z,7.80
2023-12-29T12:51:15.711Z,13.40
2023-12-29T12:53:45.552Z,7.20
2023-12-29T12:56:13.685Z,9.40
2023-12-29T12:58:41.838Z,6.00
2023-12-29T13:01:10.129Z,7.20
2023-12-29T13:03:40.152Z,7.10
2023-12-29T13:06:08.477Z,7.20
2023-12-29T13:08:40.790Z,5.90
2023-12-29T13:11:14.193Z,5.70
2023-12-29T13:13:46.304Z,8.00
2023-12-29T13:16:15.580Z,6.30
2023-12-29T13:21:12.342Z,6.00
2023-12-29T13:23:40.504Z,6.00
2023-12-29T13:26:10.129Z,7.20
2023-12-29T13:28:40.000Z,7.40
2023-12-29T13:31:09.514Z,6.80
2023-12-29T13:33:46.337Z,7.20
2023-12-29T13:36:25.260Z,7.00
2023-12-29T13:39:00.497Z,7.80
2023-12-29T13:41:29.320Z,6.70
2023-12-29T13:43:57.363Z,8.60
2023-12-29T13:46:25.589Z,7.20
2023-12-29T13:48:55.584Z,11.50
2023-12-29T13:53:03.440Z,9.20
2023-12-29T13:55:32.392Z,8.50
2023-12-29T13:58:00.639Z,8.40
2023-12-29T14:00:30.205Z,8.20
2023-12-29T14:03:07.723Z,4.80
2023-12-29T14:05:40.774Z,6.60
2023-12-29T14:08:28.167Z,7.70
2023-12-29T14:10:56.500Z,5.60
2023-12-29T14:13:24.722Z,5.40
2023-12-29T14:15:53.413Z,6.90
2023-12-29T14:18:49.271Z,6.40
2023-12-29T14:21:33.023Z,6.80
2023-12-29T14:24:02.203Z,6.50
2023-12-29T14:31:33.073Z,6.30
2023-12-29T14:34:01.251Z,5.00
2023-12-29T14:36:29.365Z,7.10
2023-12-29T14:38:57.455Z,9.50
2023-12-29T14:41:25.971Z,4.30
2023-12-29T14:43:54.247Z,7.20
2023-12-29T14:46:23.569Z,7.00
2023-12-29T14:48:51.859Z,6.00
2023-12-29T14:51:19.944Z,7.50
2023-12-29T14:53:48.834Z,4.60
2023-12-29T14:56:17.256Z,5.00
2023-12-29T14:58:45.449Z,5.60
2023-12-29T15:01:13.660Z,4.80
2023-12-29T15:03:41.908Z,5.90
2023-12-29T15:06:10.037Z,9.20
2023-12-29T15:08:38.891Z,5.90
2023-12-29T15:11:08.053Z,6.30
2023-12-29T15:13:36.422Z,6.60
2023-12-29T15:16:05.494Z,6.10
2023-12-29T15:18:33.695Z,6.40
2023-12-29T15:21:03.116Z,5.70
2023-12-29T15:25:59.291Z,7.80
2023-12-29T15:28:27.557Z,6.80
2023-12-29T15:30:55.924Z,8.30
2023-12-29T15:33:25.405Z,9.20
2023-12-29T15:35:53.956Z,6.60
2023-12-29T15:38:22.024Z,8.00
2023-12-29T15:40:50.115Z,8.40
2023-12-29T15:43:18.255Z,11.50
2023-12-29T15:45:46.429Z,16.80
2023-12-29T15:48:14.570Z,17.90
2023-12-29T15:50:43.188Z,13.00
2023-12-29T15:53:11.387Z,9.30
2023-12-29T15:55:39.461Z,10.20
2023-12-29T15:58:08.148Z,9.90
2023-12-29T16:00:36.413Z,7.40
2023-12-29T16:03:05.364Z,9.50
2023-12-29T16:05:33.456Z,5.40
2023-12-29T16:08:02.336Z,8.50
2023-12-29T16:10:31.107Z,7.00
2023-12-29T16:12:59.315Z,6.60
2023-12-29T16:15:27.393Z,9.20
2023-12-29T16:17:55.911Z,7.50
2023-12-29T16:20:23.946Z,9.50
2023-12-29T16:22:52.107Z,9.50
2023-12-29T16:25:20.700Z,8.60
2023-12-29T16:27:48.950Z,7.70
2023-12-29T16:30:17.110Z,9.00
2023-12-29T16:32:45.259Z,11.20
2023-12-29T16:35:13.417Z,9.20
2023-12-29T16:37:41.523Z,8.50
2023-12-29T16:40:11.116Z,9.30
2023-12-29T16:42:39.530Z,11.00
2023-12-29T16:45:08.199Z,7.90
2023-12-29T16:47:36.313Z,8.80
2023-12-29T16:50:05.385Z,8.70
2023-12-29T16:52:33.592Z,6.80
2023-12-29T16:55:02.512Z,7.60
2023-12-29T16:57:31.142Z,7.60
2023-12-29T16:59:59.324Z,8.90
2023-12-29T17:02:27.440Z,10.10
2023-12-29T17:04:56.054Z,7.60
2023-12-29T17:07:24.175Z,8.20
2023-12-29T17:09:52.413Z,11.80
2023-12-29T17:12:20.530Z,6.20
2023-12-29T17:14:48.613Z,7.50
2023-12-29T17:17:16.791Z,9.90
2023-12-29T17:19:45.300Z,9.30
2023-12-29T17:22:13.542Z,11.20
2023-12-29T17:24:42.271Z,8.80
2023-12-29T17:27:10.348Z,6.10
2023-12-29T17:29:40.553Z,7.50
2023-12-29T17:32:09.441Z,6.60
2023-12-29T17:34:37.681Z,6.10
2023-12-29T17:37:05.985Z,7.80
2023-12-29T17:39:34.104Z,6.60
2023-12-29T17:42:02.144Z,8.90
2023-12-29T17:44:30.182Z,6.80
2023-12-29T17:46:58.303Z,6.80
2023-12-29T17:49:29.888Z,5.90
2023-12-29T17:51:59.487Z,8.70
2023-12-29T17:54:28.043Z,8.20
2023-12-29T17:56:56.098Z,6.60
2023-12-29T17:59:24.310Z,6.20
2023-12-29T18:01:53.057Z,6.80
2023-12-29T18:04:21.417Z,6.10
2023-12-29T18:06:56.555Z,6.80
2023-12-29T18:09:31.454Z,6.70
2023-12-29T18:11:59.689Z,4.80
2023-12-29T18:14:27.979Z,7.00
2023-12-29T18:16:56.530Z,7.20
2023-12-29T18:19:24.851Z,8.60
2023-12-29T18:21:53.584Z,7.40
2023-12-29T18:24:21.689Z,7.20
2023-12-29T18:26:50.272Z,7.80
2023-12-29T18:29:19.600Z,7.00
2023-12-29T18:34:35.681Z,5.90
2023-12-29T18:37:04.132Z,6.70
2023-12-29T18:39:32.376Z,6.80
2023-12-29T18:42:00.817Z,7.80
2023-12-29T18:44:31.154Z,7.30
2023-12-29T18:46:59.758Z,8.00
2023-12-29T18:49:28.035Z,9.10
2023-12-29T18:51:56.475Z,9.80
2023-12-29T18:54:25.079Z,6.30
2023-12-29T18:56:53.185Z,7.70
2023-12-29T18:59:21.512Z,10.30
2023-12-29T19:01:51.913Z,8.70
2023-12-29T19:04:20.970Z,8.00
2023-12-29T19:06:49.172Z,8.40
2023-12-29T19:09:17.411Z,6.40
2023-12-29T19:11:45.615Z,7.50
2023-12-29T19:14:14.829Z,4.50
2023-12-29T19:16:43.041Z,6.80
2023-12-29T19:19:11.204Z,6.70
2023-12-29T19:21:49.853Z,7.10
2023-12-29T19:24:22.250Z,5.90
2023-12-29T19:26:50.874Z,6.10
2023-12-29T19:29:18.974Z,10.00
2023-12-29T19:31:47.173Z,6.40
2023-12-29T19:34:16.735Z,6.30
2023-12-29T19:36:44.965Z,6.40
2023-12-29T19:39:13.058Z,5.90
2023-12-29T19:41:41.187Z,8.10
2023-12-29T19:44:09.275Z,6.30
2023-12-29T19:46:43.572Z,5.90
2023-12-29T19:49:11.962Z,5.50
2023-12-29T19:51:40.227Z,7.20
2023-12-29T19:54:08.964Z,5.40
2023-12-29T19:56:37.037Z,6.80
2023-12-29T19:59:05.182Z,8.40
2023-12-29T20:01:41.023Z,6.10
2023-12-29T20:04:13.388Z,6.40
2023-12-29T20:06:41.667Z,6.90
2023-12-29T20:09:09.822Z,8.50
2023-12-29T20:11:41.445Z,8.30
2023-12-29T20:14:13.565Z,8.90
2023-12-29T20:16:41.827Z,9.10
2023-12-29T20:19:12.666Z,11.00
2023-12-29T20:21:40.937Z,7.60
2023-12-29T20:24:11.169Z,7.50
2023-12-29T20:26:40.140Z,7.30
2023-12-29T20:29:08.834Z,9.60
2023-12-29T20:31:37.194Z,12.90
2023-12-29T20:34:05.765Z,10.80
2023-12-29T20:36:34.130Z,9.10
2023-12-29T20:39:03.813Z,7.90
2023-12-29T20:41:32.453Z,6.60
2023-12-29T20:44:00.602Z,8.60
2023-12-29T20:46:28.870Z,14.90
2023-12-29T20:48:57.136Z,8.70
2023-12-29T20:51:25.851Z,8.60
2023-12-29T20:53:53.956Z,7.70
2023-12-29T20:56:22.746Z,7.80
2023-12-29T20:58:54.424Z,9.70
2023-12-29T21:01:24.815Z,5.80
2023-12-29T21:03:53.211Z,7.40
2023-12-29T21:06:21.602Z,8.50
2023-12-29T21:08:50.615Z,5.50
2023-12-29T21:11:19.754Z,6.40
2023-12-29T21:13:48.153Z,6.60
2023-12-29T21:16:20.109Z,6.60
2023-12-29T21:18:50.986Z,7.60
2023-12-29T21:21:19.439Z,7.80
2023-12-29T21:23:47.629Z,9.10
2023-12-29T21:26:22.375Z,8.60
2023-12-29T21:28:50.903Z,6.40
2023-12-29T21:31:19.696Z,6.30
2023-12-29T21:33:48.526Z,6.50
2023-12-29T21:36:23.897Z,5.90
2023-12-29T21:38:52.961Z,8.40
2023-12-29T21:41:21.260Z,6.50
2023-12-29T21:43:49.911Z,6.60
2023-12-29T21:46:18.128Z,6.00
2023-12-29T21:48:46.692Z,6.70
2023-12-29T21:51:15.107Z,6.30
2023-12-29T21:53:43.995Z,8.80
2023-12-29T21:56:12.115Z,7.20
2023-12-29T21:58:40.338Z,6.40
2023-12-29T22:01:40.586Z,8.20
2023-12-29T22:04:10.341Z,7.10
2023-12-29T22:06:39.654Z,7.40
2023-12-29T22:09:07.887Z,7.60
2023-12-29T22:11:36.051Z,7.30
2023-12-29T22:14:05.906Z,7.60
2023-12-29T22:16:34.032Z,6.20
2023-12-29T22:19:02.770Z,7.60
2023-12-29T22:21:30.932Z,7.00
2023-12-29T22:23:59.415Z,7.80
2023-12-29T22:26:27.648Z,9.40
2023-12-29T22:28:55.714Z,8.50
2023-12-29T22:31:23.849Z,8.60
2023-12-29T22:33:52.219Z,9.30
2023-12-29T22:36:21.166Z,4.50
2023-12-29T22:38:50.015Z,8.80
2023-12-29T22:41:19.721Z,7.20
2023-12-29T22:43:48.047Z,7.90
2023-12-29T22:46:20.775Z,7.20
2023-12-29T22:48:51.555Z,9.70
2023-12-29T22:51:19.673Z,7.30
2023-12-29T22:53:47.678Z,6.90
2023-12-29T22:56:15.768Z,7.60
2023-12-29T22:58:45.205Z,6.80
2023-12-29T23:01:13.527Z,7.00
2023-12-29T23:03:41.825Z,5.80
2023-12-29T23:06:10.318Z,5.80
2023-12-29T23:08:39.375Z,6.40
2023-12-29T23:11:09.711Z,5.40
2023-12-29T23:13:38.305Z,5.90
2023-12-29T23:16:06.760Z,6.90
2023-12-29T23:18:34.985Z,6.60
2023-12-29T23:21:03.173Z,6.70
2023-12-29T23:23:31.277Z,5.50
2023-12-29T23:26:02.652Z,7.90
2023-12-29T23:28:31.394Z,9.80
2023-12-29T23:31:00.206Z,6.80
2023-12-29T23:33:28.525Z,5.20
2023-12-29T23:35:57.685Z,7.50
2023-12-29T23:38:25.795Z,7.10
2023-12-29T23:40:53.959Z,7.50
2023-12-29T23:43:22.065Z,8.50
2023-12-29T23:45:50.749Z,4.60
2023-12-29T23:48:20.545Z,8.70
2023-12-29T23:50:49.107Z,7.00
2023-12-29T23:53:17.238Z,7.30
2023-12-29T23:55:45.428Z,8.80
2023-12-29T23:58:14.040Z,6.00
